createdAt,value
2019-04-29T00:01:21.940Z,12.10
2019-04-29T00:03:51.706Z,12.10
2019-04-29T00:06:22.799Z,12.10
2019-04-29T00:08:52.446Z,12.10
2019-04-29T00:11:23.306Z,12.10
2019-04-29T00:13:53.258Z,12.10
2019-04-29T00:16:33.936Z,12.10
2019-04-29T00:19:21.963Z,12.10
2019-04-29T00:21:54.806Z,12.20
2019-04-29T00:24:25.854Z,12.20
2019-04-29T00:26:56.256Z,12.10
2019-04-29T00:29:26.190Z,12.10
2019-04-29T00:31:56.273Z,12.00
2019-04-29T00:34:30.675Z,12.00
2019-04-29T00:37:37.139Z,12.00
2019-04-29T00:40:24.980Z,12.10
2019-04-29T00:43:17.083Z,12.20
2019-04-29T00:45:46.729Z,12.20
2019-04-29T00:48:16.607Z,12.10
2019-04-29T00:50:46.515Z,12.10
2019-04-29T00:53:17.120Z,12.10
2019-04-29T00:55:49.005Z,12.10
2019-04-29T00:58:18.923Z,12.10
2019-04-29T01:00:49.038Z,12.10
2019-04-29T01:03:19.852Z,12.10
2019-04-29T01:05:50.305Z,12.10
2019-04-29T01:08:19.799Z,12.10
2019-04-29T01:10:49.791Z,12.20
2019-04-29T01:13:20.133Z,12.20
2019-04-29T01:15:51.038Z,12.10
2019-04-29T01:18:21.054Z,12.10
2019-04-29T01:20:51.717Z,12.20
2019-04-29T01:23:21.701Z,12.20
2019-04-29T01:25:58.961Z,12.30
2019-04-29T01:28:43.345Z,12.20
2019-04-29T01:31:20.702Z,12.20
2019-04-29T01:33:58.530Z,12.20
2019-04-29T01:36:38.706Z,12.30
2019-04-29T01:39:11.963Z,12.30
2019-04-29T01:41:56.199Z,12.20
2019-04-29T01:44:29.956Z,12.10
2019-04-29T01:47:00.030Z,12.00
2019-04-29T01:49:29.833Z,12.10
2019-04-29T01:51:59.568Z,12.10
2019-04-29T01:54:29.235Z,12.10
2019-04-29T01:57:00.230Z,12.10
2019-04-29T01:59:30.143Z,12.10
2019-04-29T02:02:00.154Z,12.10
2019-04-29T02:04:30.194Z,12.10
2019-04-29T02:07:00.600Z,12.20
2019-04-29T02:09:58.493Z,12.10
2019-04-29T02:12:28.807Z,12.20
2019-04-29T02:15:00.964Z,12.20
2019-04-29T02:17:31.621Z,12.30
2019-04-29T02:20:01.725Z,12.20
2019-04-29T02:22:53.925Z,12.20
2019-04-29T02:25:30.236Z,12.20
2019-04-29T02:28:00.115Z,12.20
2019-04-29T02:30:43.196Z,12.20
2019-04-29T02:33:14.504Z,12.20
2019-04-29T02:35:49.363Z,12.20
2019-04-29T02:38:38.200Z,12.20
2019-04-29T02:41:16.042Z,12.20
2019-04-29T02:43:48.999Z,12.20
2019-04-29T02:46:18.597Z,12.10
2019-04-29T02:48:48.826Z,12.10
2019-04-29T02:51:37.980Z,12.20
2019-04-29T02:54:10.650Z,12.20
2019-04-29T02:56:44.691Z,12.20
2019-04-29T02:59:16.442Z,12.10
2019-04-29T03:02:14.667Z,12.20
2019-04-29T03:05:22.166Z,12.20
2019-04-29T03:07:52.137Z,12.10
2019-04-29T03:10:21.974Z,12.00
2019-04-29T03:12:53.481Z,12.00
2019-04-29T03:15:35.188Z,12.00
2019-04-29T03:18:05.713Z,12.00
2019-04-29T03:21:13.421Z,12.00
2019-04-29T03:23:43.747Z,12.00
2019-04-29T03:26:13.310Z,12.00
2019-04-29T03:28:44.607Z,12.00
2019-04-29T03:31:14.920Z,12.10
2019-04-29T03:33:44.983Z,12.10
2019-04-29T03:36:15.218Z,12.10
2019-04-29T03:38:47.641Z,12.10
2019-04-29T03:41:18.022Z,12.20
2019-04-29T03:43:48.035Z,12.30
2019-04-29T03:46:18.467Z,12.40
2019-04-29T03:48:49.676Z,12.40
2019-04-29T03:51:20.422Z,12.40
2019-04-29T03:53:51.514Z,12.40
2019-04-29T03:56:21.901Z,12.40
2019-04-29T03:58:51.906Z,12.40
2019-04-29T04:01:30.252Z,12.40
2019-04-29T04:04:05.231Z,12.50
2019-04-29T04:06:40.462Z,12.50
2019-04-29T04:09:15.535Z,12.60
2019-04-29T04:11:46.247Z,12.60
2019-04-29T04:14:16.714Z,12.60
2019-04-29T04:17:15.201Z,12.60
2019-04-29T04:19:46.058Z,12.60
2019-04-29T04:22:18.512Z,12.50
2019-04-29T04:24:49.102Z,12.50
2019-04-29T04:27:21.779Z,12.50
2019-04-29T04:30:14.158Z,12.50
2019-04-29T04:32:46.679Z,12.50
2019-04-29T04:35:17.937Z,12.50
2019-04-29T04:37:50.834Z,12.50
2019-04-29T04:40:30.226Z,12.60
2019-04-29T04:43:00.256Z,12.60
2019-04-29T04:45:30.410Z,12.70
2019-04-29T04:48:00.534Z,12.80
2019-04-29T04:50:30.266Z,12.90
2019-04-29T04:53:02.776Z,13.00
2019-04-29T04:55:34.461Z,13.00
2019-04-29T04:58:04.380Z,13.10
2019-04-29T05:00:35.971Z,13.10
2019-04-29T05:03:06.376Z,13.20
2019-04-29T05:05:37.812Z,13.30
2019-04-29T05:08:07.322Z,13.40
2019-04-29T05:10:39.287Z,13.30
2019-04-29T05:13:08.891Z,13.30
2019-04-29T05:15:39.185Z,13.30
2019-04-29T05:18:09.568Z,13.30
2019-04-29T05:20:40.123Z,13.40
2019-04-29T05:23:10.422Z,13.40
2019-04-29T05:25:40.667Z,13.50
2019-04-29T05:28:11.335Z,13.60
2019-04-29T05:30:41.608Z,13.60
2019-04-29T05:33:11.952Z,13.80
2019-04-29T05:36:02.035Z,13.80
2019-04-29T05:38:54.442Z,13.80
2019-04-29T05:41:30.058Z,13.80
2019-04-29T05:44:08.267Z,13.90
2019-04-29T05:46:57.688Z,13.90
2019-04-29T05:49:41.306Z,13.90
2019-04-29T05:52:39.481Z,14.00
2019-04-29T05:55:13.693Z,14.10
2019-04-29T05:57:41.226Z,14.10
2019-04-29T06:00:11.299Z,14.10
2019-04-29T06:02:40.878Z,14.20
2019-04-29T06:05:12.629Z,14.40
2019-04-29T06:07:43.572Z,14.40
2019-04-29T06:10:13.322Z,14.10
2019-04-29T06:12:44.578Z,14.20
2019-04-29T06:15:16.255Z,14.30
2019-04-29T06:17:46.378Z,14.50
2019-04-29T06:20:22.612Z,14.50
2019-04-29T06:22:51.306Z,14.80
2019-04-29T06:25:21.679Z,14.90
2019-04-29T06:27:52.379Z,15.20
2019-04-29T06:30:22.078Z,15.30
2019-04-29T06:32:53.206Z,15.40
2019-04-29T06:35:23.484Z,15.50
2019-04-29T06:37:53.500Z,15.60
2019-04-29T06:40:23.888Z,15.90
2019-04-29T06:42:56.307Z,16.20
2019-04-29T06:45:26.936Z,16.40
2019-04-29T06:47:56.960Z,16.30
2019-04-29T06:50:27.474Z,16.40
2019-04-29T06:52:57.800Z,16.30
2019-04-29T06:55:28.614Z,16.10
2019-04-29T06:57:58.839Z,15.80
2019-04-29T07:00:29.655Z,15.90
2019-04-29T07:03:00.084Z,15.90
2019-04-29T07:05:30.838Z,16.00
2019-04-29T07:08:00.907Z,16.20
2019-04-29T07:10:31.456Z,16.20
2019-04-29T07:13:02.617Z,16.40
2019-04-29T07:15:32.915Z,16.80
2019-04-29T07:18:03.163Z,16.80
2019-04-29T07:20:37.242Z,16.90
2019-04-29T07:23:05.110Z,16.80
2019-04-29T07:25:34.825Z,16.70
2019-04-29T07:28:18.397Z,16.70
2019-04-29T07:31:01.022Z,16.80
2019-04-29T07:33:22.625Z,17.00
2019-04-29T07:35:53.599Z,17.40
2019-04-29T07:38:23.642Z,17.40
2019-04-29T07:40:53.844Z,17.50
2019-04-29T07:43:23.986Z,17.50
2019-04-29T07:46:20.263Z,17.50
2019-04-29T07:49:01.231Z,17.50
2019-04-29T07:51:23.789Z,17.60
2019-04-29T07:53:53.794Z,17.60
2019-04-29T07:56:23.815Z,17.50
2019-04-29T07:58:54.608Z,17.30
2019-04-29T08:01:25.084Z,17.20
2019-04-29T08:03:58.842Z,17.00
2019-04-29T08:06:30.466Z,17.10
2019-04-29T08:09:07.425Z,16.90
2019-04-29T08:11:35.589Z,16.90
2019-04-29T08:14:06.096Z,16.90
2019-04-29T08:16:36.355Z,17.00
2019-04-29T08:19:06.022Z,17.00
2019-04-29T08:21:36.036Z,16.90
2019-04-29T08:24:06.587Z,16.90
2019-04-29T08:26:38.549Z,17.10
2019-04-29T08:29:08.978Z,17.10
2019-04-29T08:31:39.377Z,17.10
2019-04-29T08:34:09.940Z,17.30
2019-04-29T08:36:40.455Z,17.30
2019-04-29T08:39:12.169Z,17.40
2019-04-29T08:41:42.384Z,17.60
2019-04-29T08:44:31.449Z,17.60
2019-04-29T08:47:22.955Z,17.70
2019-04-29T08:49:52.103Z,17.80
2019-04-29T08:52:22.589Z,17.80
2019-04-29T08:54:57.303Z,17.60
2019-04-29T08:57:26.469Z,17.70
2019-04-29T08:59:56.980Z,17.90
2019-04-29T09:02:35.175Z,18.00
2019-04-29T09:04:58.925Z,18.10
2019-04-29T09:07:28.999Z,18.30
2019-04-29T09:10:01.778Z,18.40
2019-04-29T09:12:31.378Z,18.60
2019-04-29T09:15:02.560Z,18.70
2019-04-29T09:17:32.273Z,18.80
2019-04-29T09:20:04.204Z,19.00
2019-04-29T09:22:36.063Z,19.20
2019-04-29T09:25:32.864Z,19.10
2019-04-29T09:28:06.691Z,19.30
2019-04-29T09:30:38.692Z,19.50
2019-04-29T09:33:13.000Z,19.70
2019-04-29T09:35:40.852Z,19.50
2019-04-29T09:38:10.956Z,19.50
2019-04-29T09:40:46.911Z,19.60
2019-04-29T09:43:38.898Z,19.90
2019-04-29T09:46:12.611Z,20.30
2019-04-29T09:48:42.694Z,20.50
2019-04-29T09:51:17.507Z,20.30
2019-04-29T09:53:53.176Z,20.00
2019-04-29T09:56:22.854Z,19.90
2019-04-29T09:59:11.701Z,20.00
2019-04-29T10:02:02.361Z,20.30
2019-04-29T10:04:56.465Z,20.50
2019-04-29T10:07:19.738Z,20.80
2019-04-29T10:09:56.856Z,20.80
2019-04-29T10:12:21.881Z,20.80
2019-04-29T10:14:51.923Z,20.90
2019-04-29T10:17:45.831Z,21.00
2019-04-29T10:20:21.455Z,21.00
2019-04-29T10:22:53.711Z,20.80
2019-04-29T10:25:25.246Z,21.10
2019-04-29T10:27:56.373Z,21.50
2019-04-29T10:30:31.276Z,21.90
2019-04-29T10:33:00.412Z,21.90
2019-04-29T10:35:30.984Z,21.90
2019-04-29T10:38:02.812Z,21.70
2019-04-29T10:40:41.803Z,21.60
2019-04-29T10:43:24.109Z,21.50
2019-04-29T10:46:12.046Z,21.50
2019-04-29T10:48:49.067Z,21.40
2019-04-29T10:51:23.278Z,21.40
2019-04-29T10:53:55.338Z,21.40
2019-04-29T10:56:28.293Z,21.40
2019-04-29T10:58:57.951Z,21.40
2019-04-29T11:02:36.563Z,21.30
2019-04-29T11:05:33.142Z,21.40
2019-04-29T11:08:27.989Z,21.60
2019-04-29T11:11:02.427Z,21.60
2019-04-29T11:13:31.458Z,21.70
2019-04-29T11:16:01.444Z,21.80
2019-04-29T11:18:32.126Z,21.90
2019-04-29T11:21:02.417Z,21.80
2019-04-29T11:23:45.473Z,21.70
2019-04-29T11:26:52.877Z,21.70
2019-04-29T11:29:27.379Z,21.80
2019-04-29T11:31:56.128Z,21.80
2019-04-29T11:34:33.322Z,21.90
2019-04-29T11:37:03.237Z,22.10
2019-04-29T11:39:33.250Z,22.30
2019-04-29T11:42:05.599Z,22.50
2019-04-29T11:44:35.729Z,22.60
2019-04-29T11:47:06.072Z,22.60
2019-04-29T11:49:48.591Z,22.80
2019-04-29T11:52:18.570Z,22.90
2019-04-29T11:54:50.090Z,22.80
2019-04-29T11:57:41.051Z,22.80
2019-04-29T12:00:30.231Z,23.20
2019-04-29T12:03:02.707Z,23.30
2019-04-29T12:05:45.019Z,22.90
2019-04-29T12:08:18.154Z,23.00
2019-04-29T12:11:05.507Z,23.20
2019-04-29T12:13:30.569Z,23.60
2019-04-29T12:16:37.851Z,24.10
2019-04-29T12:19:21.326Z,24.10
2019-04-29T12:21:50.420Z,24.20
2019-04-29T12:24:20.536Z,23.30
2019-04-29T12:26:51.066Z,22.80
2019-04-29T12:29:21.584Z,22.30
2019-04-29T12:32:10.626Z,22.30
2019-04-29T12:35:03.860Z,22.30
2019-04-29T12:37:52.819Z,22.20
2019-04-29T12:40:50.191Z,22.00
2019-04-29T12:43:53.554Z,22.00
2019-04-29T12:46:39.226Z,22.00
2019-04-29T12:49:13.513Z,22.20
2019-04-29T12:51:43.598Z,22.40
2019-04-29T12:54:14.961Z,22.70
2019-04-29T12:56:47.741Z,22.80
2019-04-29T12:59:17.419Z,22.90
2019-04-29T13:02:09.626Z,22.90
2019-04-29T13:04:57.031Z,23.20
2019-04-29T13:07:48.703Z,23.00
2019-04-29T13:10:30.831Z,23.00
2019-04-29T13:13:00.747Z,23.10
2019-04-29T13:15:55.284Z,23.30
2019-04-29T13:18:37.736Z,23.30
2019-04-29T13:21:10.240Z,23.10
2019-04-29T13:23:53.569Z,23.00
2019-04-29T13:26:26.978Z,23.00
2019-04-29T13:29:02.988Z,22.80
2019-04-29T13:31:20.238Z,22.90
2019-04-29T13:33:52.878Z,22.90
2019-04-29T13:36:26.033Z,22.90
2019-04-29T13:38:54.871Z,22.70
2019-04-29T13:41:26.021Z,22.60
2019-04-29T13:44:03.948Z,22.50
2019-04-29T13:47:04.533Z,22.60
2019-04-29T13:49:50.779Z,22.90
2019-04-29T13:52:21.488Z,23.20
2019-04-29T13:54:51.496Z,23.40
2019-04-29T13:57:21.324Z,23.00
2019-04-29T14:00:13.357Z,23.00
2019-04-29T14:02:58.766Z,23.00
2019-04-29T14:05:23.161Z,23.00
2019-04-29T14:07:54.275Z,23.30
2019-04-29T14:10:24.679Z,23.40
2019-04-29T14:13:09.074Z,23.40
2019-04-29T14:15:29.685Z,23.00
2019-04-29T14:17:58.445Z,22.90
2019-04-29T14:20:28.421Z,22.70
2019-04-29T14:22:58.391Z,22.50
2019-04-29T14:25:27.903Z,22.40
2019-04-29T14:27:57.483Z,22.00
2019-04-29T14:30:38.363Z,21.70
2019-04-29T14:33:01.884Z,21.00
2019-04-29T14:35:43.921Z,20.50
2019-04-29T14:38:14.275Z,20.30
2019-04-29T14:40:45.159Z,20.00
2019-04-29T14:43:28.847Z,19.90
2019-04-29T14:46:20.687Z,19.80
2019-04-29T14:48:59.410Z,19.90
2019-04-29T14:51:28.011Z,19.80
2019-04-29T14:54:01.350Z,19.80
2019-04-29T14:56:31.364Z,19.80
2019-04-29T14:59:07.253Z,19.80
2019-04-29T15:01:47.650Z,20.00
2019-04-29T15:04:20.487Z,20.10
2019-04-29T15:06:50.128Z,20.10
2019-04-29T15:09:21.641Z,20.00
2019-04-29T15:12:09.515Z,20.00
2019-04-29T15:15:02.027Z,20.00
2019-04-29T15:17:40.346Z,19.80
2019-04-29T15:20:29.993Z,19.60
2019-04-29T15:23:01.191Z,19.50
2019-04-29T15:25:31.929Z,19.40
2019-04-29T15:28:03.533Z,19.40
2019-04-29T15:30:36.837Z,19.70
2019-04-29T15:33:06.216Z,20.00
2019-04-29T15:35:36.489Z,20.30
2019-04-29T15:38:06.434Z,20.60
2019-04-29T15:40:42.865Z,20.70
2019-04-29T15:43:09.774Z,20.80
2019-04-29T15:45:41.505Z,20.70
2019-04-29T15:48:11.677Z,20.50
2019-04-29T15:50:42.492Z,20.40
2019-04-29T15:53:12.464Z,20.30
2019-04-29T15:55:42.414Z,20.40
2019-04-29T15:58:12.876Z,20.40
2019-04-29T16:00:42.825Z,20.30
2019-04-29T16:03:17.741Z,20.30
2019-04-29T16:06:11.159Z,20.30
2019-04-29T16:08:33.292Z,20.10
2019-04-29T16:11:33.366Z,20.00
2019-04-29T16:14:09.544Z,20.00
2019-04-29T16:16:36.823Z,19.80
2019-04-29T16:19:08.488Z,19.70
2019-04-29T16:21:39.783Z,19.60
2019-04-29T16:24:25.656Z,19.60
2019-04-29T16:26:40.972Z,19.40
2019-04-29T16:29:13.358Z,19.20
2019-04-29T16:31:42.367Z,19.00
2019-04-29T16:34:12.328Z,19.00
2019-04-29T16:36:49.787Z,18.80
2019-04-29T16:39:16.639Z,18.70
2019-04-29T16:42:05.563Z,18.60
2019-04-29T16:44:36.512Z,18.60
2019-04-29T16:47:13.202Z,18.70
2019-04-29T16:49:39.907Z,18.50
2019-04-29T16:52:09.871Z,18.40
2019-04-29T16:54:39.711Z,18.30
2019-04-29T16:57:11.048Z,18.20
2019-04-29T16:59:41.071Z,18.10
2019-04-29T17:02:11.436Z,18.10
2019-04-29T17:04:43.596Z,18.20
2019-04-29T17:07:14.918Z,18.40
2019-04-29T17:10:04.771Z,18.50
2019-04-29T17:12:41.228Z,18.40
2019-04-29T17:15:24.069Z,18.40
2019-04-29T17:17:43.179Z,18.30
2019-04-29T17:20:13.961Z,18.20
2019-04-29T17:22:44.765Z,18.10
2019-04-29T17:25:14.766Z,17.90
2019-04-29T17:27:54.943Z,17.90
2019-04-29T17:30:46.377Z,17.90
2019-04-29T17:33:26.591Z,17.90
2019-04-29T17:35:51.459Z,17.70
2019-04-29T17:38:22.283Z,17.60
2019-04-29T17:40:51.860Z,17.60
2019-04-29T17:43:50.453Z,17.60
2019-04-29T17:46:38.926Z,17.40
2019-04-29T17:49:33.957Z,17.40
2019-04-29T17:52:06.773Z,17.40
2019-04-29T17:54:41.210Z,17.40
2019-04-29T17:57:31.525Z,17.30
2019-04-29T18:00:26.105Z,17.30
2019-04-29T18:03:15.178Z,17.30
2019-04-29T18:06:18.822Z,17.30
2019-04-29T18:09:01.561Z,17.30
2019-04-29T18:11:31.368Z,17.30
2019-04-29T18:14:01.027Z,17.30
2019-04-29T18:16:39.438Z,17.30
2019-04-29T18:19:25.161Z,17.30
2019-04-29T18:22:17.162Z,17.30
2019-04-29T18:25:14.937Z,17.30
2019-04-29T18:27:49.137Z,17.20
2019-04-29T18:30:27.375Z,17.20
2019-04-29T18:32:50.895Z,17.10
2019-04-29T18:35:22.663Z,17.00
2019-04-29T18:37:52.750Z,17.10
2019-04-29T18:40:25.729Z,16.90
2019-04-29T18:42:56.410Z,16.80
2019-04-29T18:45:29.706Z,16.80
2019-04-29T18:48:01.098Z,16.90
2019-04-29T18:50:34.328Z,16.80
2019-04-29T18:53:03.235Z,16.80
2019-04-29T18:55:35.450Z,16.70
2019-04-29T18:58:08.773Z,16.70
2019-04-29T19:00:40.336Z,16.70
2019-04-29T19:03:14.876Z,16.80
2019-04-29T19:05:48.176Z,16.80
2019-04-29T19:08:23.315Z,16.70
2019-04-29T19:10:52.160Z,16.70
2019-04-29T19:13:22.661Z,16.60
2019-04-29T19:16:02.891Z,16.50
2019-04-29T19:18:26.000Z,16.60
2019-04-29T19:20:56.965Z,16.50
2019-04-29T19:23:29.524Z,16.40
2019-04-29T19:26:07.102Z,16.30
2019-04-29T19:28:36.918Z,16.30
2019-04-29T19:31:09.870Z,16.20
2019-04-29T19:33:41.573Z,16.20
2019-04-29T19:36:17.479Z,16.10
2019-04-29T19:38:47.278Z,16.10
2019-04-29T19:41:18.097Z,16.00
2019-04-29T19:43:55.249Z,16.00
2019-04-29T19:46:24.081Z,16.00
2019-04-29T19:48:51.333Z,15.90
2019-04-29T19:51:23.164Z,16.00
2019-04-29T19:53:55.214Z,15.80
2019-04-29T19:56:27.075Z,15.90
2019-04-29T19:58:57.985Z,15.80
2019-04-29T20:01:32.172Z,15.70
2019-04-29T20:04:22.694Z,15.70
2019-04-29T20:06:58.646Z,15.70
2019-04-29T20:09:29.598Z,15.70
2019-04-29T20:12:00.196Z,15.70
2019-04-29T20:14:33.835Z,15.60
2019-04-29T20:17:22.446Z,15.50
2019-04-29T20:20:15.355Z,15.50
2019-04-29T20:22:51.041Z,15.50
2019-04-29T20:25:29.243Z,15.50
2019-04-29T20:28:05.523Z,15.50
2019-04-29T20:30:26.930Z,15.50
2019-04-29T20:33:01.209Z,15.50
2019-04-29T20:35:30.105Z,15.40
2019-04-29T20:38:01.806Z,15.30
2019-04-29T20:40:36.216Z,15.30
2019-04-29T20:43:07.828Z,15.30
2019-04-29T20:45:36.045Z,15.20
2019-04-29T20:48:06.458Z,15.20
2019-04-29T20:50:36.640Z,15.20
2019-04-29T20:53:25.967Z,15.10
2019-04-29T20:56:00.071Z,15.20
2019-04-29T20:58:32.847Z,15.10
2019-04-29T21:01:03.023Z,15.10
2019-04-29T21:03:32.561Z,15.10
2019-04-29T21:06:05.912Z,15.00
2019-04-29T21:08:35.748Z,15.00
2019-04-29T21:11:14.366Z,14.90
2019-04-29T21:13:53.007Z,14.90
2019-04-29T21:16:30.886Z,14.80
2019-04-29T21:19:09.192Z,14.80
2019-04-29T21:21:41.893Z,14.70
2019-04-29T21:24:13.930Z,14.60
2019-04-29T21:26:44.436Z,14.60
2019-04-29T21:29:19.227Z,14.50
2019-04-29T21:31:50.859Z,14.50
2019-04-29T21:34:21.340Z,14.50
2019-04-29T21:37:12.961Z,14.50
2019-04-29T21:39:49.758Z,14.50
2019-04-29T21:42:35.398Z,14.50
2019-04-29T21:45:03.601Z,14.40
2019-04-29T21:47:44.328Z,14.40
2019-04-29T21:50:05.623Z,14.40
2019-04-29T21:52:36.818Z,14.30
2019-04-29T21:55:07.880Z,14.30
2019-04-29T21:57:38.227Z,14.30
2019-04-29T22:00:12.716Z,14.20
2019-04-29T22:02:46.637Z,14.20
2019-04-29T22:05:18.434Z,14.20
2019-04-29T22:07:47.535Z,14.10
2019-04-29T22:10:20.026Z,14.10
2019-04-29T22:12:54.150Z,14.20
2019-04-29T22:15:32.070Z,14.10
2019-04-29T22:17:58.943Z,14.00
2019-04-29T22:20:28.064Z,14.00
2019-04-29T22:22:58.824Z,14.10
2019-04-29T22:25:28.773Z,13.90
2019-04-29T22:28:00.925Z,13.90
2019-04-29T22:30:30.969Z,13.90
2019-04-29T22:33:01.030Z,13.80
2019-04-29T22:35:32.706Z,13.70
2019-04-29T22:38:03.464Z,13.80
2019-04-29T22:40:41.299Z,13.70
2019-04-29T22:43:25.332Z,13.70
2019-04-29T22:45:55.224Z,13.70
2019-04-29T22:48:29.936Z,13.70
2019-04-29T22:50:59.606Z,13.70
2019-04-29T22:53:30.615Z,13.60
2019-04-29T22:56:01.425Z,13.60
2019-04-29T22:58:34.959Z,13.60
2019-04-29T23:01:06.779Z,13.60
2019-04-29T23:03:38.662Z,13.70
2019-04-29T23:06:10.302Z,13.70
2019-04-29T23:08:39.970Z,13.70
2019-04-29T23:11:10.436Z,13.70
2019-04-29T23:13:46.158Z,13.70
2019-04-29T23:16:18.430Z,13.60
2019-04-29T23:18:49.167Z,13.60
2019-04-29T23:21:43.390Z,13.60
2019-04-29T23:24:26.205Z,13.50
2019-04-29T23:26:57.384Z,13.60
2019-04-29T23:29:28.408Z,13.50
2019-04-29T23:31:59.751Z,13.60
2019-04-29T23:34:30.946Z,13.50
2019-04-29T23:37:01.633Z,13.50
2019-04-29T23:39:32.358Z,13.50
2019-04-29T23:42:04.574Z,13.40
2019-04-29T23:44:37.821Z,13.40
2019-04-29T23:47:10.425Z,13.50
2019-04-29T23:49:42.882Z,13.30
2019-04-29T23:52:11.520Z,13.30
2019-04-29T23:54:45.634Z,13.30
2019-04-29T23:57:23.712Z,13.20
